Time;durP1;ratioP1;P1;durP2;ratioP2;P2;SDS_P1;SDS_P2;PMS_P1;PMS_P2;Temp;Humidity;BMP_temperature;BMP_pressure;BME280_temperature;BME280_humidity;BME280_pressure;Samples;Min_cycle;Max_cycle;Signal;HPM_P1;HPM_P2
2021/04/22 00:01:05;;;;;;;13.88;9.77;;;307.60;1766.40;;;;;;4862670;29;20037;-64
2021/04/22 00:03:31;;;;;;;15.82;10.60;;;307.60;1792.00;;;;;;4862853;29;20041;-64
2021/04/22 00:05:57;;;;;;;16.45;10.45;;;307.50;1817.60;;;;;;4862382;29;20089;-66
2021/04/22 00:08:23;;;;;;;17.08;10.60;;;307.50;1843.20;;;;;;4862540;29;20092;-64
2021/04/22 00:10:51;;;;;;;14.23;10.02;;;307.20;1868.80;;;;;;4862968;29;20376;-64
2021/04/22 00:13:21;;;;;;;15.15;10.40;;;282.50;1894.40;;;;;;4862735;29;20037;-64
2021/04/22 00:15:48;;;;;;;16.60;10.27;;;282.40;1945.60;;;;;;4862451;29;20544;-64
2021/04/22 00:18:14;;;;;;;15.70;10.98;;;282.30;1971.20;;;;;;4862232;29;20038;-64
2021/04/22 00:20:40;;;;;;;16.95;11.50;;;282.10;1971.20;;;;;;4859828;29;20040;-65
2021/04/22 00:23:07;;;;;;;16.70;11.48;;;282.00;1996.80;;;;;;4859607;29;20033;-64
2021/04/22 00:25:33;;;;;;;16.73;11.32;;;281.90;2022.40;;;;;;4860144;29;20029;-64
2021/04/22 00:28:00;;;;;;;18.35;12.23;;;281.90;2048.00;;;;;;4862167;29;20054;-64
2021/04/22 00:30:27;;;;;;;18.80;12.40;;;281.70;2048.00;;;;;;4862344;29;20381;-65
2021/04/22 00:32:52;;;;;;;21.35;13.43;;;281.60;2048.00;;;;;;4845580;29;20373;-64
2021/04/22 00:35:18;;;;;;;19.15;12.50;;;281.60;2073.60;;;;;;4862642;29;20169;-64
2021/04/22 00:37:44;;;;;;;19.20;12.88;;;281.60;2099.20;;;;;;4862110;29;20033;-64
2021/04/22 00:40:16;;;;;;;16.58;12.07;;;281.60;2048.00;;;;;;4845538;29;20029;-64
2021/04/22 00:42:42;;;;;;;19.80;12.57;;;256.90;2073.60;;;;;;4862331;29;20041;-65
2021/04/22 00:45:09;;;;;;;17.88;12.50;;;256.90;2099.20;;;;;;4862213;29;20022;-65
2021/04/22 00:47:37;;;;;;;18.70;12.20;;;256.60;2099.20;;;;;;4862151;29;20030;-64
2021/04/22 00:50:09;;;;;;;17.30;12.43;;;256.50;2150.40;;;;;;4862031;29;20218;-63
2021/04/22 00:52:36;;;;;;;18.55;12.90;;;256.40;2150.40;;;;;;4861824;29;20623;-63
2021/04/22 00:55:02;;;;;;;17.58;12.88;;;256.20;2176.00;;;;;;4861744;29;20097;-63
2021/04/22 00:57:28;;;;;;;16.17;11.80;;;256.20;2176.00;;;;;;4845553;29;20484;-63
2021/04/22 00:59:53;;;;;;;18.23;13.05;;;256.10;2201.60;;;;;;4861794;29;20034;-63
2021/04/22 01:02:19;;;;;;;18.80;12.32;;;256.00;2201.60;;;;;;4861922;29;20400;-63
2021/04/22 01:04:47;;;;;;;18.00;12.75;;;231.30;2201.60;;;;;;4861859;29;20453;-63
2021/04/22 01:07:14;;;;;;;18.35;12.32;;;231.20;2201.60;;;;;;4861747;29;20029;-62
2021/04/22 01:09:40;;;;;;;18.77;12.40;;;231.10;2227.20;;;;;;4861706;29;20112;-63
2021/04/22 01:12:07;;;;;;;17.33;12.00;;;231.10;2227.20;;;;;;4861313;29;20117;-63
2021/04/22 01:14:33;;;;;;;17.70;12.60;;;231.00;2227.20;;;;;;4861774;29;20040;-63
2021/04/22 01:16:59;;;;;;;19.08;13.18;;;231.00;2227.20;;;;;;4861787;29;20029;-63
2021/04/22 01:19:25;;;;;;;19.13;12.50;;;230.90;2252.80;;;;;;4861152;29;20476;-63
2021/04/22 01:21:52;;;;;;;17.40;12.68;;;230.80;2252.80;;;;;;4861661;29;20034;-63
2021/04/22 01:24:18;;;;;;;21.65;14.25;;;230.80;2252.80;;;;;;4862106;29;20491;-63
2021/04/22 01:26:44;;;;;;;21.02;13.05;;;230.80;2252.80;;;;;;4861203;29;20040;-63
2021/04/22 01:29:10;;;;;;;19.50;13.18;;;230.80;2252.80;;;;;;4861372;29;20029;-63
2021/04/22 01:31:36;;;;;;;19.00;13.48;;;230.80;2252.80;;;;;;4861546;29;20425;-63
2021/04/22 01:34:03;;;;;;;19.75;13.45;;;230.70;2252.80;;;;;;4860890;29;20045;-63
2021/04/22 01:36:41;;;;;;;21.75;13.85;;;230.70;2252.80;;;;;;4860853;29;20037;-63
2021/04/22 01:39:11;;;;;;;31.60;17.52;;;230.60;2252.80;;;;;;4861397;29;20059;-63
2021/04/22 01:41:36;;;;;;;28.35;15.27;;;230.50;2252.80;;;;;;4861242;29;20041;-63
2021/04/22 01:44:03;;;;;;;28.38;17.95;;;230.50;2252.80;;;;;;4861343;29;20544;-64
2021/04/22 01:46:30;;;;;;;36.13;20.30;;;230.50;2252.80;;;;;;4861142;29;20033;-64
2021/04/22 01:48:55;;;;;;;31.25;18.42;;;230.50;2252.80;;;;;;4861001;29;20365;-63
2021/04/22 01:51:21;;;;;;;30.42;17.10;;;230.50;2252.80;;;;;;4861105;29;20045;-64
2021/04/22 01:53:48;;;;;;;29.90;16.80;;;230.50;2252.80;;;;;;4861034;29;20032;-62
2021/04/22 01:56:15;;;;;;;23.98;15.20;;;230.60;2252.80;;;;;;4861361;29;20033;-64
2021/04/22 01:58:41;;;;;;;22.17;13.77;;;230.60;2252.80;;;;;;4860952;29;20049;-62
2021/04/22 02:01:06;;;;;;;18.85;12.60;;;230.60;2252.80;;;;;;4860620;29;20097;-64
2021/04/22 02:03:33;;;;;;;18.08;11.80;;;230.70;2252.80;;;;;;4861221;29;20030;-66
2021/04/22 02:06:01;;;;;;;14.70;10.55;;;230.80;2252.80;;;;;;4861331;29;20480;-63
2021/04/22 02:08:27;;;;;;;14.88;10.30;;;230.90;2252.80;;;;;;4861080;29;20380;-63
2021/04/22 02:10:53;;;;;;;14.52;9.63;;;231.00;2227.20;;;;;;4861328;29;20037;-63
2021/04/22 02:13:20;;;;;;;14.35;9.38;;;231.00;2227.20;;;;;;4860996;29;20029;-63
2021/04/22 02:15:48;;;;;;;13.55;9.38;;;231.10;2227.20;;;;;;4852321;29;20057;-64
2021/04/22 02:18:14;;;;;;;13.07;9.25;;;231.10;2201.60;;;;;;4849055;29;20410;-64
2021/04/22 02:20:40;;;;;;;63.83;30.67;;;231.20;2201.60;;;;;;4847249;29;20045;-63
2021/04/22 02:23:07;;;;;;;69.05;32.08;;;231.20;2201.60;;;;;;4841693;29;20041;-66
2021/04/22 02:25:33;;;;;;;155.63;58.97;;;231.20;2201.60;;;;;;4826366;29;20026;-63
2021/04/22 02:27:59;;;;;;;160.13;63.10;;;231.20;2201.60;;;;;;4842339;29;20553;-64
2021/04/22 02:30:29;;;;;;;97.72;43.33;;;231.20;2201.60;;;;;;4844633;29;20030;-63
2021/04/22 02:32:56;;;;;;;65.90;32.95;;;231.20;2201.60;;;;;;4845389;29;20049;-63
2021/04/22 02:35:27;;;;;;;46.22;26.63;;;231.20;2201.60;;;;;;4845960;29;20030;-63
2021/04/22 02:37:53;;;;;;;24.20;15.52;;;231.20;2201.60;;;;;;4846110;29;20477;-66
2021/04/22 02:40:22;;;;;;;28.70;17.75;;;231.20;2201.60;;;;;;4846134;29;20037;-63
2021/04/22 02:42:48;;;;;;;20.48;12.60;;;231.20;2201.60;;;;;;4845898;29;20512;-62
2021/04/22 02:45:18;;;;;;;20.13;12.82;;;231.10;2227.20;;;;;;4845895;29;20061;-63
2021/04/22 02:47:44;;;;;;;17.83;10.85;;;231.10;2227.20;;;;;;4845807;29;20037;-64
2021/04/22 02:50:13;;;;;;;12.95;9.93;;;231.00;2201.60;;;;;;4845646;29;20034;-66
2021/04/22 02:52:39;;;;;;;18.40;11.45;;;230.90;2201.60;;;;;;4845881;29;20037;-62
2021/04/22 02:55:06;;;;;;;14.70;10.07;;;230.80;2227.20;;;;;;4845563;29;20030;-62
2021/04/22 02:57:32;;;;;;;15.57;10.88;;;230.80;2227.20;;;;;;4845264;29;20044;-62
2021/04/22 02:59:58;;;;;;;16.05;10.73;;;230.80;2252.80;;;;;;4845508;29;20094;-63
2021/04/22 03:02:24;;;;;;;14.93;10.82;;;230.80;2252.80;;;;;;4845598;29;20034;-64
2021/04/22 03:04:50;;;;;;;14.20;10.00;;;230.80;2252.80;;;;;;4845327;29;20033;-63
2021/04/22 03:07:15;;;;;;;15.88;9.90;;;230.80;2252.80;;;;;;4829002;29;20030;-63
2021/04/22 03:09:41;;;;;;;14.90;9.05;;;230.80;2252.80;;;;;;4845300;29;20536;-63
2021/04/22 03:12:07;;;;;;;14.02;9.00;;;230.90;2252.80;;;;;;4845068;29;20037;-63
2021/04/22 03:14:33;;;;;;;12.82;8.73;;;230.90;2252.80;;;;;;4845245;29;20495;-62
2021/04/22 03:16:59;;;;;;;10.68;7.32;;;230.90;2252.80;;;;;;4845350;29;20037;-61
2021/04/22 03:19:25;;;;;;;10.43;7.35;;;231.10;2227.20;;;;;;4844937;29;20037;-63
2021/04/22 03:21:51;;;;;;;11.55;7.82;;;231.10;2227.20;;;;;;4828255;29;20050;-63
2021/04/22 03:24:16;;;;;;;10.10;7.07;;;231.20;2201.60;;;;;;4845261;29;20520;-64
2021/04/22 03:26:42;;;;;;;12.43;6.97;;;231.20;2201.60;;;;;;4845071;29;20120;-63
2021/04/22 03:29:08;;;;;;;11.48;7.47;;;231.20;2201.60;;;;;;4844525;29;20041;-63
2021/04/22 03:31:34;;;;;;;11.43;6.93;;;231.30;2176.00;;;;;;4845245;29;20038;-63
2021/04/22 03:34:00;;;;;;;11.63;6.88;;;231.30;2176.00;;;;;;4844773;29;20133;-63
2021/04/22 03:36:25;;;;;;;11.07;7.03;;;256.00;2176.00;;;;;;4844921;29;20105;-63
2021/04/22 03:38:51;;;;;;;10.25;7.30;;;256.00;2176.00;;;;;;4844848;29;20091;-63
2021/04/22 03:41:17;;;;;;;16.52;11.25;;;256.10;2150.40;;;;;;4844180;29;20049;-63
2021/04/22 03:43:43;;;;;;;16.15;10.88;;;256.00;2176.00;;;;;;4844851;29;20038;-63
2021/04/22 03:46:08;;;;;;;13.63;10.20;;;256.00;2176.00;;;;;;4844816;29;20085;-63
2021/04/22 03:48:34;;;;;;;14.48;9.70;;;256.10;2176.00;;;;;;4845038;29;20437;-63
2021/04/22 03:51:00;;;;;;;19.98;12.13;;;256.00;2176.00;;;;;;4844596;29;20034;-62
2021/04/22 03:53:25;;;;;;;16.63;10.07;;;256.00;2176.00;;;;;;4844797;29;20077;-63
2021/04/22 03:55:52;;;;;;;19.60;10.98;;;231.30;2201.60;;;;;;4844733;29;20491;-63
2021/04/22 03:58:18;;;;;;;18.20;11.80;;;231.30;2201.60;;;;;;4844434;29;20037;-63
2021/04/22 04:00:43;;;;;;;17.52;11.68;;;231.30;2201.60;;;;;;4844651;29;20030;-63
2021/04/22 04:03:09;;;;;;;22.80;13.98;;;256.00;2176.00;;;;;;4827714;29;20050;-64
2021/04/22 04:05:35;;;;;;;18.13;13.50;;;256.10;2176.00;;;;;;4843985;29;20476;-63
2021/04/22 04:08:00;;;;;;;16.50;11.27;;;256.10;2176.00;;;;;;4844565;29;20396;-63
2021/04/22 04:10:26;;;;;;;14.63;10.52;;;256.10;2176.00;;;;;;4844345;29;20074;-66
2021/04/22 04:12:52;;;;;;;15.38;9.75;;;256.10;2176.00;;;;;;4840471;29;20484;-63
2021/04/22 04:15:18;;;;;;;14.70;9.65;;;256.10;2150.40;;;;;;4825926;29;20052;-63
2021/04/22 04:17:44;;;;;;;17.27;9.98;;;256.30;2150.40;;;;;;4842424;29;20026;-62
2021/04/22 04:20:13;;;;;;;15.18;9.85;;;256.30;2150.40;;;;;;4842923;29;20030;-65
2021/04/22 04:22:38;;;;;;;14.13;9.32;;;256.30;2150.40;;;;;;4841812;29;20058;-64
2021/04/22 04:25:06;;;;;;;17.83;11.52;;;256.30;2150.40;;;;;;4841995;29;20086;-63
2021/04/22 04:27:32;;;;;;;16.30;10.30;;;256.40;2150.40;;;;;;4842086;29;20030;-65
2021/04/22 04:29:58;;;;;;;23.45;15.10;;;256.40;2124.80;;;;;;4843786;29;20045;-63
2021/04/22 04:32:24;;;;;;;21.40;13.85;;;256.50;2150.40;;;;;;4849920;29;20472;-63
2021/04/22 04:34:49;;;;;;;25.42;14.90;;;256.40;2150.40;;;;;;4849159;29;20106;-63
2021/04/22 04:37:15;;;;;;;24.55;15.80;;;256.50;2150.40;;;;;;4848653;29;20037;-65
2021/04/22 04:39:41;;;;;;;24.92;15.30;;;256.50;2124.80;;;;;;4849999;29;20108;-63
2021/04/22 04:42:07;;;;;;;25.70;13.55;;;256.60;2124.80;;;;;;4848886;29;20061;-69
2021/04/22 04:44:34;;;;;;;24.20;14.13;;;256.60;2124.80;;;;;;4848510;29;20029;-64
2021/04/22 04:47:00;;;;;;;25.80;15.75;;;256.60;2124.80;;;;;;4842322;29;20453;-65
2021/04/22 04:49:26;;;;;;;27.30;15.75;;;256.60;2124.80;;;;;;4859407;29;20029;-63
2021/04/22 04:51:51;;;;;;;26.95;16.23;;;256.80;2124.80;;;;;;4856279;29;20062;-62
2021/04/22 04:54:17;;;;;;;30.75;16.77;;;256.80;2099.20;;;;;;4860625;29;20116;-65
2021/04/22 04:56:43;;;;;;;29.90;16.83;;;256.80;2099.20;;;;;;4835751;29;20093;-63
2021/04/22 04:59:09;;;;;;;22.50;12.13;;;256.90;2099.20;;;;;;4840050;29;20075;-63
2021/04/22 05:01:35;;;;;;;15.60;9.30;;;281.60;2099.20;;;;;;4841545;29;20563;-63
2021/04/22 05:04:00;;;;;;;10.93;7.47;;;281.70;2073.60;;;;;;4841999;29;20030;-63
2021/04/22 05:06:26;;;;;;;10.35;5.18;;;281.80;2073.60;;;;;;4840761;29;20057;-63
2021/04/22 05:08:52;;;;;;;9.07;5.20;;;281.90;2022.40;;;;;;4847380;29;20041;-64
2021/04/22 05:11:18;;;;;;;8.38;4.35;;;282.10;2022.40;;;;;;4853231;29;20038;-62
2021/04/22 05:13:43;;;;;;;7.25;3.70;;;282.10;1971.20;;;;;;4859387;29;20029;-63
2021/04/22 05:16:09;;;;;;;6.13;3.90;;;282.30;1920.00;;;;;;4857972;29;20040;-63
2021/04/22 05:18:35;;;;;;;6.43;3.85;;;282.40;1894.40;;;;;;4840385;29;20083;-63
2021/04/22 05:21:01;;;;;;;8.02;3.95;;;282.40;1868.80;;;;;;4840847;29;20425;-62
2021/04/22 05:23:26;;;;;;;4.97;3.60;;;282.50;1868.80;;;;;;4841187;29;20090;-62
2021/04/22 05:25:54;;;;;;;5.43;3.80;;;307.20;1894.40;;;;;;4850357;29;20078;-62
2021/04/22 05:28:21;;;;;;;7.15;4.00;;;307.30;1868.80;;;;;;4860069;29;20491;-62
2021/04/22 05:30:46;;;;;;;6.70;3.78;;;307.40;1843.20;;;;;;4859142;29;20421;-62
2021/04/22 05:33:12;;;;;;;6.25;4.20;;;307.50;1843.20;;;;;;4826350;29;20081;-62
2021/04/22 05:35:39;;;;;;;9.57;6.22;;;307.60;1843.20;;;;;;4842835;29;20495;-63
2021/04/22 05:38:05;;;;;;;10.25;6.70;;;307.70;1817.60;;;;;;4842683;29;20105;-62
2021/04/22 05:40:32;;;;;;;7.57;4.40;;;307.70;1817.60;;;;;;4842746;29;20034;-61
2021/04/22 05:42:58;;;;;;;5.78;3.80;;;307.90;1792.00;;;;;;4842672;29;20069;-62
2021/04/22 05:45:24;;;;;;;7.18;4.05;;;308.00;1766.40;;;;;;4842667;29;20026;-62
2021/04/22 05:47:50;;;;;;;6.75;4.18;;;308.00;1740.80;;;;;;4842401;29;20038;-62
2021/04/22 05:50:18;;;;;;;6.43;4.05;;;308.10;1740.80;;;;;;4842674;29;20090;-61
2021/04/22 05:52:44;;;;;;;9.48;4.60;;;332.80;1740.80;;;;;;4842494;29;20045;-62
2021/04/22 05:55:11;;;;;;;7.25;4.20;;;332.90;1740.80;;;;;;4848005;29;20025;-62
2021/04/22 05:57:37;;;;;;;8.50;4.78;;;333.00;1689.60;;;;;;4861351;29;20057;-61
2021/04/22 06:00:07;;;;;;;112.85;57.08;;;333.10;1689.60;;;;;;4861055;29;20073;-62
2021/04/22 06:02:33;;;;;;;7.00;4.10;;;333.30;1689.60;;;;;;4860890;29;20517;-61
2021/04/22 06:04:58;;;;;;;5.05;3.53;;;333.20;1638.40;;;;;;4862568;29;20030;-62
2021/04/22 06:07:24;;;;;;;6.78;3.97;;;333.20;1638.40;;;;;;4847881;29;20500;-62
2021/04/22 06:09:51;;;;;;;7.10;4.30;;;333.30;1612.80;;;;;;4864948;29;20021;-61
2021/04/22 06:12:16;;;;;;;4.45;3.25;;;333.40;1638.40;;;;;;4864755;29;20030;-62
2021/04/22 06:14:42;;;;;;;5.38;3.00;;;333.60;1587.20;;;;;;4864475;29;20040;-62
2021/04/22 06:17:08;;;;;;;6.00;3.50;;;333.70;1561.60;;;;;;4864680;29;20033;-62
2021/04/22 06:19:33;;;;;;;6.50;3.80;;;358.40;1587.20;;;;;;4864604;29;20037;-62
2021/04/22 06:21:59;;;;;;;11.98;5.65;;;358.50;1587.20;;;;;;4864342;29;20046;-62
2021/04/22 06:24:25;;;;;;;12.32;7.05;;;358.70;1561.60;;;;;;4848012;29;20121;-62
2021/04/22 06:26:51;;;;;;;9.85;6.35;;;358.90;1561.60;;;;;;4864414;29;20034;-62
2021/04/22 06:29:17;;;;;;;5.32;3.17;;;359.00;1510.40;;;;;;4862599;29;20105;-62
2021/04/22 06:31:45;;;;;;;31.63;14.55;;;359.10;1484.80;;;;;;4852419;29;20040;-62
2021/04/22 06:34:12;;;;;;;6.82;3.50;;;359.30;1459.20;;;;;;4851415;29;20061;-62
2021/04/22 06:36:38;;;;;;;10.88;5.55;;;384.00;1433.60;;;;;;4853523;29;20050;-62
2021/04/22 06:39:05;;;;;;;6.60;3.90;;;384.10;1408.00;;;;;;4852338;29;20057;-61
2021/04/22 06:41:30;;;;;;;6.68;3.63;;;384.30;1408.00;;;;;;4845458;29;20042;-62
2021/04/22 06:43:56;;;;;;;11.15;4.82;;;384.50;1382.40;;;;;;4843155;29;20043;-62
2021/04/22 06:46:22;;;;;;;7.13;3.03;;;384.40;1382.40;;;;;;4843416;29;20389;-62
2021/04/22 06:48:50;;;;;;;23.10;9.80;;;384.50;1356.80;;;;;;4843206;29;20034;-66
2021/04/22 06:51:16;;;;;;;6.70;3.97;;;384.70;1356.80;;;;;;4843798;29;20040;-62
2021/04/22 06:53:42;;;;;;;13.05;6.18;;;384.80;1356.80;;;;;;4842683;29;20018;-65
2021/04/22 06:56:08;;;;;;;14.68;5.93;;;384.90;1356.80;;;;;;4843943;29;20029;-64
2021/04/22 06:58:33;;;;;;;9.18;5.53;;;384.90;1331.20;;;;;;4844085;29;20061;-63
2021/04/22 07:00:59;;;;;;;4.75;3.05;;;409.60;1305.60;;;;;;4842972;29;20025;-63
2021/04/22 07:03:25;;;;;;;4.97;3.30;;;409.70;1331.20;;;;;;4843260;29;20049;-65
2021/04/22 07:05:51;;;;;;;4.03;2.60;;;409.70;1305.60;;;;;;4843952;29;20037;-64
2021/04/22 07:08:17;;;;;;;10.90;5.47;;;409.80;1305.60;;;;;;4844378;29;20026;-63
2021/04/22 07:10:43;;;;;;;16.60;6.43;;;410.10;1254.40;;;;;;4843986;29;20026;-63
2021/04/22 07:13:09;;;;;;;15.60;6.07;;;410.30;1254.40;;;;;;4844791;29;20034;-64
2021/04/22 07:15:35;;;;;;;13.20;5.38;;;410.30;1177.60;;;;;;4843726;29;20038;-63
2021/04/22 07:18:02;;;;;;;12.65;4.97;;;410.50;1177.60;;;;;;4842593;29;20093;-62
2021/04/22 07:20:29;;;;;;;4.18;1.80;;;410.50;1126.40;;;;;;4842599;29;20492;-67
2021/04/22 07:22:56;;;;;;;3.17;2.10;;;435.20;1126.40;;;;;;4842114;29;20105;-65
2021/04/22 07:25:24;;;;;;;12.55;5.78;;;435.30;1126.40;;;;;;4842828;29;20377;-63
2021/04/22 07:27:50;;;;;;;2.72;2.05;;;435.50;1100.80;;;;;;4843475;29;20417;-62
2021/04/22 07:30:17;;;;;;;4.50;2.20;;;435.60;1075.20;;;;;;4827536;29;20477;-62
2021/04/22 07:32:43;;;;;;;5.22;3.20;;;435.60;1100.80;;;;;;4842956;29;20046;-62
2021/04/22 07:35:09;;;;;;;11.85;6.00;;;435.80;1075.20;;;;;;4826912;29;20856;-62
2021/04/22 07:37:39;;;;;;;12.80;6.57;;;436.00;1049.60;;;;;;4844021;29;20054;-62
2021/04/22 07:40:07;;;;;;;7.30;4.25;;;436.10;1075.20;;;;;;4827665;29;20041;-62
2021/04/22 07:42:33;;;;;;;9.45;4.57;;;460.90;1075.20;;;;;;4828514;29;20485;-62
2021/04/22 07:44:59;;;;;;;44.72;16.02;;;461.00;1049.60;;;;;;4862302;29;20036;-63
2021/04/22 07:47:24;;;;;;;7.57;3.35;;;461.20;1075.20;;;;;;4861417;29;20149;-64
2021/04/22 07:49:50;;;;;;;5.18;3.53;;;461.20;1024.00;;;;;;4861976;29;20072;-63
2021/04/22 07:52:16;;;;;;;5.60;3.05;;;461.10;1049.60;;;;;;4861401;29;20033;-63
2021/04/22 07:54:43;;;;;;;4.47;3.03;;;461.40;1049.60;;;;;;4862260;29;20053;-63
2021/04/22 07:57:09;;;;;;;4.53;3.05;;;461.60;1024.00;;;;;;4861275;29;20048;-63
2021/04/22 07:59:35;;;;;;;4.00;2.95;;;461.50;1049.60;;;;;;4862405;29;20375;-63
2021/04/22 08:02:01;;;;;;;4.93;3.05;;;461.50;1024.00;;;;;;4843737;29;20045;-63
2021/04/22 08:04:27;;;;;;;3.50;2.80;;;461.70;1024.00;;;;;;4860002;29;20036;-61
2021/04/22 08:06:52;;;;;;;3.65;2.72;;;486.40;998.40;;;;;;4842819;29;20033;-63
2021/04/22 08:09:18;;;;;;;4.55;2.78;;;486.40;998.40;;;;;;4859330;29;20121;-62
2021/04/22 08:11:44;;;;;;;4.43;2.67;;;486.60;972.80;;;;;;4860086;29;20037;-69
2021/04/22 08:14:09;;;;;;;4.28;2.80;;;486.60;972.80;;;;;;4859704;29;20030;-62
2021/04/22 08:16:35;;;;;;;3.63;2.90;;;486.90;998.40;;;;;;4859537;29;20038;-64
2021/04/22 08:19:04;;;;;;;5.97;3.55;;;487.10;998.40;;;;;;4859425;29;20052;-62
2021/04/22 08:21:30;;;;;;;5.97;3.17;;;487.20;947.20;;;;;;4859796;29;20082;-61
2021/04/22 08:23:56;;;;;;;4.70;3.17;;;487.20;947.20;;;;;;4859938;29;20579;-62
2021/04/22 08:26:23;;;;;;;5.07;3.20;;;487.20;947.20;;;;;;4859346;29;20037;-62
2021/04/22 08:28:49;;;;;;;4.03;3.03;;;487.10;947.20;;;;;;4858420;29;20043;-63
2021/04/22 08:31:23;;;;;;;4.22;3.35;;;487.20;947.20;;;;;;4859070;29;20061;-63
2021/04/22 08:33:53;;;;;;;4.70;3.27;;;487.20;947.20;;;;;;4859356;29;20099;-62
2021/04/22 08:36:21;;;;;;;5.32;3.20;;;512.30;972.80;;;;;;4860007;29;20029;-63
2021/04/22 08:38:48;;;;;;;3.05;2.45;;;512.40;921.60;;;;;;4859601;29;20037;-66
2021/04/22 08:41:14;;;;;;;9.07;5.32;;;512.70;921.60;;;;;;4860340;29;20037;-62
2021/04/22 08:43:40;;;;;;;13.57;5.95;;;512.70;921.60;;;;;;4860140;29;20353;-61
2021/04/22 08:46:07;;;;;;;16.50;7.75;;;537.60;921.60;;;;;;4859993;29;20037;-62
2021/04/22 08:48:35;;;;;;;7.22;3.88;;;537.80;947.20;;;;;;4859774;29;20026;-62
2021/04/22 08:51:01;;;;;;;10.63;5.30;;;537.90;947.20;;;;;;4859663;29;20037;-63
2021/04/22 08:53:31;;;;;;;18.90;9.15;;;537.80;896.00;;;;;;4859714;29;20038;-62
2021/04/22 08:55:58;;;;;;;8.43;5.47;;;537.80;896.00;;;;;;4860705;29;20488;-62
2021/04/22 08:58:24;;;;;;;14.20;5.75;;;537.90;896.00;;;;;;4852439;29;20137;-62
2021/04/22 09:00:56;;;;;;;5.60;3.85;;;538.20;870.40;;;;;;4840784;29;20057;-63
2021/04/22 09:03:23;;;;;;;3.72;2.67;;;538.10;870.40;;;;;;4841464;29;20046;-64
2021/04/22 09:05:50;;;;;;;6.30;3.60;;;538.30;870.40;;;;;;4826265;29;20034;-63
2021/04/22 09:08:15;;;;;;;6.38;3.85;;;538.10;844.80;;;;;;4842351;29;20038;-62
2021/04/22 09:10:42;;;;;;;7.30;3.42;;;537.80;844.80;;;;;;4841736;29;20391;-63
2021/04/22 09:13:17;;;;;;;7.45;4.15;;;537.90;870.40;;;;;;4841783;29;20034;-63
2021/04/22 09:15:45;;;;;;;5.38;3.30;;;537.90;870.40;;;;;;4841212;29;20034;-62
2021/04/22 09:18:18;;;;;;;6.32;4.10;;;538.40;870.40;;;;;;4825305;29;20030;-62
2021/04/22 09:20:48;;;;;;;4.15;3.10;;;563.20;844.80;;;;;;4825090;29;20026;-62
2021/04/22 09:23:26;;;;;;;7.00;4.47;;;538.50;819.20;;;;;;4841451;29;20488;-64
2021/04/22 09:26:05;;;;;;;10.70;6.50;;;538.40;844.80;;;;;;4841156;29;20065;-62
2021/04/22 09:28:43;;;;;;;7.85;4.60;;;563.20;870.40;;;;;;4841928;29;20076;-63
2021/04/22 09:31:11;;;;;;;8.25;4.63;;;538.40;819.20;;;;;;4842816;29;20044;-63
2021/04/22 09:33:39;;;;;;;5.40;3.50;;;538.00;819.20;;;;;;4841685;29;20081;-61
2021/04/22 09:36:12;;;;;;;6.40;3.95;;;538.20;819.20;;;;;;4841397;29;20048;-63
2021/04/22 09:38:39;;;;;;;10.02;5.28;;;538.40;793.60;;;;;;4840008;29;20082;-62
2021/04/22 09:41:10;;;;;;;6.55;3.90;;;538.40;819.20;;;;;;4824586;29;20038;-62
2021/04/22 09:43:36;;;;;;;4.80;3.10;;;538.50;793.60;;;;;;4840570;29;20061;-63
2021/04/22 09:46:01;;;;;;;5.90;3.35;;;563.30;819.20;;;;;;4840976;29;20057;-67
2021/04/22 09:48:30;;;;;;;5.65;3.55;;;563.20;844.80;;;;;;4840337;29;20061;-63
2021/04/22 09:50:57;;;;;;;3.88;2.70;;;563.30;844.80;;;;;;4841116;29;20476;-61
2021/04/22 09:53:25;;;;;;;6.40;4.00;;;563.50;793.60;;;;;;4841322;29;20114;-64
2021/04/22 09:55:56;;;;;;;4.47;2.90;;;563.60;819.20;;;;;;4840319;29;20041;-63
2021/04/22 09:58:29;;;;;;;11.45;6.28;;;563.90;819.20;;;;;;4839324;29;20038;-71
2021/04/22 10:00:56;;;;;;;9.48;5.78;;;564.10;793.60;;;;;;4840114;29;20034;-62
2021/04/22 10:03:22;;;;;;;6.50;3.30;;;564.10;793.60;;;;;;4839402;29;20079;-67
2021/04/22 10:06:00;;;;;;;7.07;4.97;;;564.00;793.60;;;;;;4823493;29;20038;-72
2021/04/22 10:08:27;;;;;;;5.35;2.70;;;564.00;768.00;;;;;;4840060;29;20044;-63
2021/04/22 10:10:59;;;;;;;4.82;3.15;;;588.90;768.00;;;;;;4858531;29;20049;-61
2021/04/22 10:13:24;;;;;;;4.03;3.00;;;564.10;742.40;;;;;;4859787;29;20025;-61
2021/04/22 10:15:55;;;;;;;3.80;3.00;;;564.10;742.40;;;;;;4860230;29;20033;-61
2021/04/22 10:18:22;;;;;;;5.28;4.13;;;563.90;742.40;;;;;;4858978;29;20064;-62
2021/04/22 10:20:49;;;;;;;4.60;3.45;;;563.50;768.00;;;;;;4860139;29;20030;-61
2021/04/22 10:23:15;;;;;;;4.80;3.33;;;563.30;768.00;;;;;;4860256;29;20441;-63
2021/04/22 10:25:43;;;;;;;6.82;4.53;;;563.30;768.00;;;;;;4860095;29;20030;-61
2021/04/22 10:28:11;;;;;;;6.15;3.83;;;563.20;768.00;;;;;;4860084;29;20437;-65
2021/04/22 10:30:39;;;;;;;5.40;3.33;;;563.40;768.00;;;;;;4859475;29;20040;-61
2021/04/22 10:33:06;;;;;;;6.38;3.75;;;563.50;742.40;;;;;;4843733;29;20496;-61
2021/04/22 10:35:35;;;;;;;4.53;3.67;;;563.70;768.00;;;;;;4860239;29;20158;-62
2021/04/22 10:38:03;;;;;;;4.30;3.20;;;564.10;716.80;;;;;;4858883;29;20030;-62
2021/04/22 10:40:33;;;;;;;6.13;3.00;;;589.10;742.40;;;;;;4859390;29;20037;-63
2021/04/22 10:43:02;;;;;;;4.95;3.33;;;589.30;716.80;;;;;;4859363;29;20114;-66
2021/04/22 10:45:30;;;;;;;4.65;3.55;;;589.50;742.40;;;;;;4858990;29;20451;-61
2021/04/22 10:47:56;;;;;;;5.72;3.10;;;589.60;691.20;;;;;;4843819;29;20034;-62
2021/04/22 10:50:32;;;;;;;3.33;2.97;;;614.60;665.60;;;;;;4840655;29;20101;-65
2021/04/22 10:52:59;;;;;;;4.82;3.63;;;615.00;640.00;;;;;;4843272;29;20033;-62
2021/04/22 10:55:29;;;;;;;5.22;3.50;;;640.00;614.40;;;;;;4843736;29;20109;-62
2021/04/22 10:57:58;;;;;;;4.28;3.35;;;640.30;588.80;;;;;;4843889;29;20030;-62
2021/04/22 11:00:29;;;;;;;6.60;3.25;;;665.60;563.20;;;;;;4862540;29;20072;-65
2021/04/22 11:02:58;;;;;;;7.65;3.00;;;691.20;537.60;;;;;;4862879;29;20112;-66
2021/04/22 11:05:30;;;;;;;3.78;2.80;;;692.00;512.00;;;;;;4862461;29;20064;-62
2021/04/22 11:08:03;;;;;;;5.53;3.67;;;717.50;460.80;;;;;;4862024;29;20741;-69
2021/04/22 11:10:42;;;;;;;4.32;2.97;;;742.50;460.80;;;;;;4863394;29;20034;-62
2021/04/22 11:13:25;;;;;;;3.90;3.20;;;743.20;435.20;;;;;;4849846;29;20038;-68
2021/04/22 11:15:57;;;;;;;4.53;3.07;;;768.90;384.00;;;;;;4843230;29;20132;-63
2021/04/22 11:18:36;;;;;;;3.78;3.15;;;794.00;409.60;;;;;;4843594;29;20038;-62
2021/04/22 11:21:04;;;;;;;16.08;4.13;;;793.60;409.60;;;;;;4844340;29;20442;-64
2021/04/22 11:23:40;;;;;;;11.35;3.90;;;768.10;435.20;;;;;;4852964;29;20037;-61
2021/04/22 11:26:24;;;;;;;5.20;3.03;;;717.10;512.00;;;;;;4862499;29;20108;-63
2021/04/22 11:28:51;;;;;;;3.65;3.00;;;742.50;460.80;;;;;;4861633;29;20034;-62
2021/04/22 11:31:19;;;;;;;3.53;2.83;;;793.70;409.60;;;;;;4862644;29;20026;-63
2021/04/22 11:33:46;;;;;;;5.88;3.60;;;768.60;384.00;;;;;;4845420;29;20084;-63
2021/04/22 11:36:16;;;;;;;3.95;3.13;;;819.20;384.00;;;;;;4862906;29;20100;-64
2021/04/22 11:38:52;;;;;;;3.75;2.90;;;845.30;332.80;;;;;;4861082;29;20041;-63
2021/04/22 11:41:18;;;;;;;3.22;2.50;;;870.80;281.60;;;;;;4860016;29;20033;-62
2021/04/22 11:43:45;;;;;;;3.10;2.80;;;896.40;256.00;;;;;;4860946;29;20055;-69
2021/04/22 11:46:10;;;;;;;3.28;2.50;;;921.90;281.60;;;;;;4861635;29;20078;-61
2021/04/22 11:48:39;;;;;;;5.10;2.42;;;922.40;281.60;;;;;;4861468;29;20037;-63
2021/04/22 11:51:05;;;;;;;3.35;2.40;;;973.00;307.20;;;;;;4861904;29;20417;-62
2021/04/22 11:53:33;;;;;;;2.97;2.00;;;973.20;307.20;;;;;;4861993;29;20032;-68
2021/04/22 11:56:00;;;;;;;2.50;2.30;;;947.80;281.60;;;;;;4844371;29;20033;-63
2021/04/22 11:58:27;;;;;;;2.75;2.30;;;972.90;307.20;;;;;;4844729;29;20697;-62
2021/04/22 12:00:55;;;;;;;2.70;2.50;;;999.20;332.80;;;;;;4860403;29;20026;-65
2021/04/22 12:03:28;;;;;;;2.60;2.35;;;973.60;307.20;;;;;;4860119;29;20424;-62
2021/04/22 12:05:56;;;;;;;3.93;2.40;;;998.40;332.80;;;;;;4861363;29;20040;-63
2021/04/22 12:08:32;;;;;;;4.50;2.47;;;973.10;307.20;;;;;;4862647;29;20116;-64
2021/04/22 12:10:59;;;;;;;2.60;2.40;;;1024.00;332.80;;;;;;4862672;29;20554;-64
2021/04/22 12:13:27;;;;;;;3.97;2.70;;;998.60;332.80;;;;;;4862534;29;20112;-69